Columbus AFB, Mississippi
Current Conditions -  °F | °C
As of 12:45 PM on Tuesday 27 Jan 2015 (Local Time) from KGTR Reporting Station
Clear Clear  
Wind Chill: 59°   Ceiling: Unl
Heat Index: 59°   Visibility: 10mi
Dew Point: 39°   Wind: 8mph
Humidity: 48%   Direction: 330°NNW
Pressure: 30.07"   Gusts: 16mph
Location:  33.455°N, 88.5512°W
Report Text: KGTR 271845Z 33007G14KT 10SM SKC 15/04 A3007
Loading
Personal Weather Stations






























Interactive Weather Map New forecast layout! Learn more

10-Day Weather Forecast

Advertisements
Track Severe Weather on mobile